createdAt,value
2018-09-11T00:00:14.009Z,2.27
2018-09-11T00:02:41.422Z,2.50
2018-09-11T00:05:08.805Z,2.57
2018-09-11T00:07:36.177Z,2.77
2018-09-11T00:10:03.576Z,2.60
2018-09-11T00:12:31.072Z,2.57
2018-09-11T00:14:58.464Z,2.43
2018-09-11T00:17:25.870Z,2.70
2018-09-11T00:19:53.268Z,2.63
2018-09-11T00:22:20.664Z,3.00
2018-09-11T00:24:48.153Z,2.47
2018-09-11T00:27:15.775Z,2.63
2018-09-11T00:29:43.152Z,2.57
2018-09-11T00:32:10.535Z,2.57
2018-09-11T00:34:37.933Z,2.60
2018-09-11T00:37:05.325Z,2.80
2018-09-11T00:39:32.720Z,2.43
2018-09-11T00:42:00.144Z,2.63
2018-09-11T00:44:27.488Z,2.60
2018-09-11T00:46:54.853Z,2.97
2018-09-11T00:51:51.933Z,2.80
2018-09-11T00:54:19.289Z,3.10
2018-09-11T00:56:46.745Z,2.77
2018-09-11T00:59:14.130Z,3.23
2018-09-11T01:01:41.594Z,2.83
2018-09-11T01:04:09.064Z,2.90
2018-09-11T01:06:36.571Z,2.90
2018-09-11T01:09:06.575Z,3.23
2018-09-11T01:11:33.986Z,2.67
2018-09-11T01:14:01.412Z,2.80
2018-09-11T01:16:28.845Z,3.20
2018-09-11T01:18:56.279Z,3.00
2018-09-11T01:21:23.676Z,3.00
2018-09-11T01:23:51.290Z,2.90
2018-09-11T01:26:18.721Z,2.70
2018-09-11T01:28:46.127Z,2.83
2018-09-11T01:31:13.526Z,2.13
2018-09-11T01:33:40.962Z,2.53
2018-09-11T01:36:08.424Z,3.00
2018-09-11T01:38:35.935Z,2.57
2018-09-11T01:41:03.371Z,2.70
2018-09-11T01:43:30.779Z,2.90
2018-09-11T01:45:58.173Z,2.77
2018-09-11T01:48:25.588Z,2.50
2018-09-11T01:50:53.019Z,2.50
2018-09-11T01:53:20.420Z,2.37
2018-09-11T01:55:48.031Z,2.50
2018-09-11T01:58:15.428Z,2.50
2018-09-11T02:00:42.828Z,2.60
2018-09-11T02:03:10.244Z,2.63
2018-09-11T02:05:38.490Z,3.10
2018-09-11T02:08:05.880Z,3.00
2018-09-11T02:10:33.659Z,2.27
2018-09-11T02:13:01.092Z,2.43
2018-09-11T02:15:28.536Z,3.27
2018-09-11T02:17:55.983Z,3.70
2018-09-11T02:20:23.398Z,2.13
2018-09-11T02:22:50.758Z,2.73
2018-09-11T02:25:18.157Z,2.63
2018-09-11T02:27:45.524Z,3.33
2018-09-11T02:30:12.892Z,2.90
2018-09-11T02:32:40.305Z,2.60
2018-09-11T02:35:07.719Z,2.90
2018-09-11T02:37:35.118Z,3.50
2018-09-11T02:40:02.537Z,2.87
2018-09-11T02:42:29.921Z,3.00
2018-09-11T02:44:57.396Z,2.80
2018-09-11T02:47:24.894Z,2.60
2018-09-11T02:49:52.336Z,2.40
2018-09-11T02:52:19.776Z,3.07
2018-09-11T02:54:47.217Z,3.20
2018-09-11T02:57:14.734Z,3.00
2018-09-11T02:59:42.121Z,3.13
2018-09-11T03:02:09.537Z,2.90
2018-09-11T03:04:37.009Z,2.43
2018-09-11T03:07:04.453Z,2.83
2018-09-11T03:09:31.857Z,2.90
2018-09-11T03:11:59.245Z,2.90
2018-09-11T03:14:26.646Z,3.17
2018-09-11T03:16:54.114Z,2.50
2018-09-11T03:19:21.558Z,2.90
2018-09-11T03:21:48.960Z,3.00
2018-09-11T03:24:16.347Z,3.13
2018-09-11T03:26:43.912Z,2.40
2018-09-11T03:29:11.321Z,2.67
2018-09-11T03:31:38.948Z,2.63
2018-09-11T03:34:06.622Z,2.30
2018-09-11T03:36:34.090Z,3.20
2018-09-11T03:39:01.511Z,2.67
2018-09-11T03:41:28.920Z,2.70
2018-09-11T03:43:56.342Z,3.07
2018-09-11T03:46:23.815Z,2.90
2018-09-11T03:48:51.305Z,3.23
2018-09-11T03:51:18.740Z,3.20
2018-09-11T03:53:46.148Z,3.17
2018-09-11T03:56:13.556Z,3.27
2018-09-11T03:58:40.980Z,2.93
2018-09-11T04:01:08.401Z,3.20
2018-09-11T04:03:35.869Z,3.50
2018-09-11T04:06:03.324Z,2.70
2018-09-11T04:08:30.851Z,3.10
2018-09-11T04:10:58.280Z,3.53
2018-09-11T04:13:25.740Z,2.33
2018-09-11T04:15:53.191Z,4.50
2018-09-11T04:18:20.615Z,2.90
2018-09-11T04:20:48.024Z,3.40
2018-09-11T04:23:15.478Z,3.47
2018-09-11T04:25:42.996Z,3.10
2018-09-11T04:28:10.393Z,3.47
2018-09-11T04:30:37.837Z,4.03
2018-09-11T04:33:05.260Z,3.30
2018-09-11T04:35:32.662Z,3.20
2018-09-11T04:38:00.072Z,3.43
2018-09-11T04:40:27.528Z,3.33
2018-09-11T04:42:54.939Z,3.20
2018-09-11T04:45:22.326Z,3.67
2018-09-11T04:47:49.749Z,4.13
2018-09-11T04:50:17.161Z,3.57
2018-09-11T04:52:44.615Z,3.63
2018-09-11T04:55:12.089Z,3.63
2018-09-11T04:57:39.521Z,3.43
2018-09-11T05:00:06.920Z,3.63
2018-09-11T05:02:34.336Z,3.60
2018-09-11T05:05:01.752Z,3.63
2018-09-11T05:07:29.260Z,3.80
2018-09-11T05:09:56.701Z,3.70
2018-09-11T05:12:24.780Z,3.30
2018-09-11T05:14:52.228Z,3.50
2018-09-11T05:17:19.633Z,4.13
2018-09-11T05:19:47.099Z,3.57
2018-09-11T05:22:14.503Z,3.50
2018-09-11T05:24:41.985Z,2.83
2018-09-11T05:27:09.420Z,3.30
2018-09-11T05:29:36.824Z,2.97
2018-09-11T05:32:04.280Z,3.30
2018-09-11T05:34:31.691Z,3.40
2018-09-11T05:36:59.250Z,2.63
2018-09-11T05:39:26.627Z,3.17
2018-09-11T05:41:54.025Z,3.43
2018-09-11T05:44:21.425Z,3.10
2018-09-11T05:46:49.278Z,2.60
2018-09-11T05:49:16.698Z,2.83
2018-09-11T05:51:44.211Z,2.93
2018-09-11T05:54:11.699Z,3.97
2018-09-11T05:56:39.111Z,3.20
2018-09-11T05:59:06.497Z,3.00
2018-09-11T06:01:34.039Z,3.70
2018-09-11T06:04:01.429Z,3.53
2018-09-11T06:06:28.842Z,4.60
2018-09-11T06:08:56.338Z,3.50
2018-09-11T06:11:23.928Z,4.00
2018-09-11T06:13:51.404Z,3.87
2018-09-11T06:16:18.913Z,3.93
2018-09-11T06:18:46.355Z,4.00
2018-09-11T06:21:13.796Z,4.20
2018-09-11T06:23:41.269Z,4.10
2018-09-11T06:26:08.824Z,4.20
2018-09-11T06:28:36.253Z,4.60
2018-09-11T06:31:07.152Z,4.40
2018-09-11T06:33:34.782Z,4.03
2018-09-11T06:36:02.484Z,4.10
2018-09-11T06:38:30.204Z,4.20
2018-09-11T06:40:58.191Z,4.07
2018-09-11T06:43:25.665Z,3.50
2018-09-11T06:45:53.174Z,3.70
2018-09-11T06:48:20.813Z,5.33
2018-09-11T06:50:48.308Z,3.60
2018-09-11T06:53:15.708Z,3.67
2018-09-11T06:55:43.765Z,3.73
2018-09-11T06:58:11.220Z,4.00
2018-09-11T07:00:38.797Z,3.90
2018-09-11T07:03:06.378Z,3.57
2018-09-11T07:05:33.776Z,3.77
2018-09-11T07:08:01.217Z,3.67
2018-09-11T07:10:28.689Z,3.47
2018-09-11T07:12:56.088Z,3.20
2018-09-11T07:15:23.484Z,3.70
2018-09-11T07:17:50.901Z,3.53
2018-09-11T07:20:19.057Z,3.80
2018-09-11T07:22:46.217Z,4.10
2018-09-11T07:25:13.611Z,3.60
2018-09-11T07:27:41.642Z,4.00
2018-09-11T07:30:09.080Z,4.40
2018-09-11T07:32:36.544Z,3.20
2018-09-11T07:35:04.332Z,3.30
2018-09-11T07:37:31.737Z,3.60
2018-09-11T07:39:59.151Z,3.30
2018-09-11T07:42:26.589Z,3.33
2018-09-11T07:44:54.399Z,3.17
2018-09-11T07:47:21.831Z,3.83
2018-09-11T07:49:49.429Z,3.23
2018-09-11T07:52:16.906Z,3.60
2018-09-11T07:54:44.435Z,3.37
2018-09-11T07:57:12.184Z,3.40
2018-09-11T07:59:39.698Z,3.37
2018-09-11T08:02:07.117Z,3.70
2018-09-11T08:04:35.130Z,3.37
2018-09-11T08:07:02.568Z,3.30
2018-09-11T08:09:31.333Z,2.77
2018-09-11T08:11:58.849Z,3.17
2018-09-11T08:14:26.327Z,3.33
2018-09-11T08:16:53.764Z,3.77
2018-09-11T08:19:21.645Z,3.20
2018-09-11T08:21:49.178Z,3.47
2018-09-11T08:24:16.645Z,3.13
2018-09-11T08:26:44.084Z,3.30
2018-09-11T08:29:11.552Z,3.40
2018-09-11T08:31:39.862Z,2.87
2018-09-11T08:34:07.328Z,3.30
2018-09-11T08:36:34.863Z,3.53
2018-09-11T08:39:02.467Z,3.13
2018-09-11T08:41:29.910Z,3.50
2018-09-11T08:43:57.352Z,3.20
2018-09-11T08:46:24.876Z,3.40
2018-09-11T08:48:52.345Z,3.30
2018-09-11T08:51:19.796Z,3.43
2018-09-11T08:53:47.265Z,3.57
2018-09-11T08:56:14.780Z,3.27
2018-09-11T08:58:42.315Z,3.40
2018-09-11T09:01:09.761Z,3.27
2018-09-11T09:03:37.575Z,3.07
2018-09-11T09:06:04.964Z,3.60
2018-09-11T09:08:32.356Z,3.20
2018-09-11T09:11:00.561Z,3.40
2018-09-11T09:13:27.993Z,3.13
2018-09-11T09:15:55.505Z,3.10
2018-09-11T09:18:23.153Z,2.90
2018-09-11T09:20:50.620Z,3.00
2018-09-11T09:23:18.174Z,3.30
2018-09-11T09:25:45.767Z,3.10
2018-09-11T09:28:13.376Z,2.73
2018-09-11T09:30:40.824Z,2.87
2018-09-11T09:33:08.457Z,2.87
2018-09-11T09:35:35.949Z,2.97
2018-09-11T09:38:03.328Z,3.03
2018-09-11T09:40:30.764Z,3.30
2018-09-11T09:42:58.553Z,3.30
2018-09-11T09:45:26.098Z,3.60
2018-09-11T09:47:53.523Z,3.37
2018-09-11T09:50:20.944Z,3.03
2018-09-11T09:52:48.376Z,3.27
2018-09-11T09:55:15.768Z,3.37
2018-09-11T09:57:43.906Z,3.00
2018-09-11T10:00:11.363Z,3.17
2018-09-11T10:02:38.878Z,2.87
2018-09-11T10:05:06.355Z,2.83
2018-09-11T10:07:33.980Z,3.30
2018-09-11T10:10:01.369Z,3.37
2018-09-11T10:12:29.157Z,2.90
2018-09-11T10:14:56.632Z,3.13
2018-09-11T10:17:24.422Z,3.77
2018-09-11T10:19:52.033Z,3.57
2018-09-11T10:22:19.444Z,3.27
2018-09-11T10:24:47.090Z,3.57
2018-09-11T10:27:14.837Z,3.40
2018-09-11T10:29:42.461Z,3.27
2018-09-11T10:32:09.953Z,2.93
2018-09-11T10:34:37.448Z,3.60
2018-09-11T10:37:04.851Z,3.20
2018-09-11T10:39:32.521Z,3.97
2018-09-11T10:41:59.965Z,3.50
2018-09-11T10:44:27.520Z,2.80
2018-09-11T10:46:55.009Z,2.37
2018-09-11T10:49:22.408Z,3.40
2018-09-11T10:51:49.977Z,2.30
2018-09-11T10:54:17.542Z,2.80
2018-09-11T10:56:45.028Z,2.53
2018-09-11T10:59:12.589Z,2.57
2018-09-11T11:01:40.071Z,3.10
2018-09-11T11:04:07.500Z,2.77
2018-09-11T11:06:35.148Z,3.00
2018-09-11T11:09:02.677Z,3.63
2018-09-11T11:11:30.064Z,2.70
2018-09-11T11:13:58.357Z,2.70
2018-09-11T11:16:25.840Z,2.87
2018-09-11T11:18:53.308Z,3.60
2018-09-11T11:21:20.852Z,2.80
2018-09-11T11:23:48.338Z,2.50
2018-09-11T11:26:15.788Z,2.80
2018-09-11T11:28:43.244Z,3.07
2018-09-11T11:31:10.612Z,2.67
2018-09-11T11:33:38.116Z,2.33
2018-09-11T11:36:05.500Z,2.53
2018-09-11T11:38:34.344Z,3.20
2018-09-11T11:41:01.827Z,2.63
2018-09-11T11:43:29.319Z,2.97
2018-09-11T11:45:56.788Z,3.27
2018-09-11T11:48:24.521Z,3.27
2018-09-11T11:50:51.883Z,2.93
2018-09-11T11:53:19.331Z,2.73
2018-09-11T11:55:46.766Z,2.80
2018-09-11T11:58:14.172Z,3.63
2018-09-11T12:00:41.833Z,2.70
2018-09-11T12:03:09.308Z,2.70
2018-09-11T12:05:36.797Z,2.77
2018-09-11T12:08:04.264Z,2.83
2018-09-11T12:10:31.871Z,2.87
2018-09-11T12:12:59.402Z,3.20
2018-09-11T12:15:26.857Z,3.37
2018-09-11T12:17:54.308Z,3.43
2018-09-11T12:20:21.837Z,3.50
2018-09-11T12:22:49.330Z,3.57
2018-09-11T12:25:16.857Z,2.70
2018-09-11T12:27:44.578Z,2.90
2018-09-11T12:30:12.040Z,3.23
2018-09-11T12:32:39.440Z,3.33
2018-09-11T12:35:07.063Z,3.50
2018-09-11T12:37:34.528Z,3.07
2018-09-11T12:40:02.037Z,3.10
2018-09-11T12:42:29.486Z,4.50
2018-09-11T12:44:56.841Z,3.90
2018-09-11T12:47:24.847Z,3.50
2018-09-11T12:49:52.026Z,3.73
2018-09-11T12:52:19.476Z,4.07
2018-09-11T12:54:46.896Z,3.40
2018-09-11T12:57:14.363Z,3.57
2018-09-11T12:59:41.856Z,4.47
2018-09-11T13:02:09.304Z,3.63
2018-09-11T13:04:36.996Z,3.97
2018-09-11T13:07:05.238Z,3.50
2018-09-11T13:09:32.651Z,3.73
2018-09-11T13:12:00.364Z,3.43
2018-09-11T13:14:28.180Z,3.77
2018-09-11T13:16:55.619Z,3.63
2018-09-11T13:19:23.027Z,4.20
2018-09-11T13:21:50.859Z,4.10
2018-09-11T13:24:18.577Z,4.63
2018-09-11T13:26:45.979Z,4.67
2018-09-11T13:29:13.471Z,4.33
2018-09-11T13:31:41.045Z,4.27
2018-09-11T13:34:08.563Z,4.80
2018-09-11T13:36:36.268Z,3.90
2018-09-11T13:39:04.796Z,4.00
2018-09-11T13:41:32.550Z,4.73
2018-09-11T13:43:59.961Z,4.20
2018-09-11T13:46:27.335Z,4.67
2018-09-11T13:48:54.764Z,4.37
2018-09-11T13:51:22.192Z,4.77
2018-09-11T13:53:49.617Z,4.47
2018-09-11T13:56:17.065Z,3.90
2018-09-11T13:58:44.493Z,4.43
2018-09-11T14:01:12.463Z,4.40
2018-09-11T14:03:40.067Z,6.10
2018-09-11T14:06:07.459Z,5.37
2018-09-11T14:08:34.858Z,4.53
2018-09-11T14:11:02.287Z,4.83
2018-09-11T14:13:29.722Z,3.83
2018-09-11T14:15:57.116Z,4.77
2018-09-11T14:18:24.492Z,4.40
2018-09-11T14:20:52.549Z,4.43
2018-09-11T14:23:19.928Z,4.67
2018-09-11T14:25:47.788Z,4.03
2018-09-11T14:28:15.175Z,4.10
2018-09-11T14:30:42.808Z,4.20
2018-09-11T14:33:10.277Z,4.07
2018-09-11T14:35:38.035Z,4.97
2018-09-11T14:38:05.620Z,4.20
2018-09-11T14:40:33.151Z,4.57
2018-09-11T14:43:00.600Z,3.87
2018-09-11T14:45:28.188Z,4.67
2018-09-11T14:47:55.660Z,4.00
2018-09-11T14:50:23.236Z,4.47
2018-09-11T14:52:50.792Z,4.90
2018-09-11T14:55:18.297Z,4.17
2018-09-11T14:57:45.776Z,4.60
2018-09-11T15:00:13.274Z,4.97
2018-09-11T15:02:40.712Z,4.33
2018-09-11T15:05:08.169Z,5.47
2018-09-11T15:07:35.651Z,4.00
2018-09-11T15:10:03.253Z,4.20
2018-09-11T15:12:30.764Z,4.20
2018-09-11T15:14:58.348Z,4.70
2018-09-11T15:17:25.760Z,4.67
2018-09-11T15:19:53.253Z,4.83
2018-09-11T15:22:20.708Z,4.30
2018-09-11T15:24:48.053Z,5.10
2018-09-11T15:27:15.464Z,4.57
2018-09-11T15:29:42.878Z,4.70
2018-09-11T15:32:10.283Z,4.93
2018-09-11T15:34:37.740Z,4.40
2018-09-11T15:37:05.116Z,4.77
2018-09-11T15:39:32.525Z,5.47
2018-09-11T15:41:59.912Z,5.30
2018-09-11T15:44:28.092Z,5.17
2018-09-11T15:46:55.948Z,5.20
2018-09-11T15:49:23.351Z,4.97
2018-09-11T15:51:50.788Z,5.07
2018-09-11T15:54:18.194Z,5.70
2018-09-11T15:56:45.556Z,4.83
2018-09-11T15:59:12.973Z,5.73
2018-09-11T16:01:40.385Z,5.73
2018-09-11T16:04:07.782Z,6.10
2018-09-11T16:06:35.172Z,6.07
2018-09-11T16:13:57.981Z,5.53
2018-09-11T16:16:25.328Z,5.80
2018-09-11T16:18:52.734Z,5.93
2018-09-11T16:21:20.135Z,6.73
2018-09-11T16:23:47.515Z,5.20
2018-09-11T16:26:15.869Z,5.87
2018-09-11T16:28:43.353Z,5.33
2018-09-11T16:31:10.973Z,5.30
2018-09-11T16:33:38.388Z,5.37
2018-09-11T16:36:05.747Z,5.03
2018-09-11T16:38:33.165Z,5.57
2018-09-11T16:41:00.545Z,4.53
2018-09-11T16:43:27.937Z,4.97
2018-09-11T16:45:55.315Z,5.40
2018-09-11T16:48:22.691Z,4.97
2018-09-11T16:50:50.055Z,4.77
2018-09-11T16:53:17.468Z,5.17
2018-09-11T16:55:44.869Z,4.93
2018-09-11T16:58:12.268Z,4.23
2018-09-11T17:00:39.650Z,4.33
2018-09-11T17:03:06.998Z,4.20
2018-09-11T17:05:34.401Z,4.40
2018-09-11T17:08:01.779Z,6.40
2018-09-11T17:10:29.152Z,4.87
2018-09-11T17:12:56.627Z,5.13
2018-09-11T17:15:24.024Z,4.60
2018-09-11T17:17:51.429Z,4.50
2018-09-11T17:20:18.866Z,4.90
2018-09-11T17:22:46.265Z,4.43
2018-09-11T17:25:13.633Z,4.90
2018-09-11T17:27:41.040Z,4.33
2018-09-11T17:30:08.403Z,5.13
2018-09-11T17:32:35.819Z,4.63
2018-09-11T17:35:03.323Z,5.00
2018-09-11T17:37:30.738Z,5.07
2018-09-11T17:39:58.117Z,5.67
2018-09-11T17:42:25.483Z,5.87
2018-09-11T17:44:52.856Z,4.97
2018-09-11T17:47:20.260Z,5.30
2018-09-11T17:49:47.633Z,5.57
2018-09-11T17:52:15.040Z,5.77
2018-09-11T17:54:42.461Z,5.83
2018-09-11T17:57:09.864Z,6.20
2018-09-11T17:59:37.232Z,5.77
2018-09-11T18:02:04.625Z,5.83
2018-09-11T18:04:31.983Z,5.87
2018-09-11T18:06:59.457Z,5.83
2018-09-11T18:09:26.841Z,6.20
2018-09-11T18:11:54.227Z,6.30
2018-09-11T18:14:22.881Z,6.20
2018-09-11T18:16:50.328Z,5.57
2018-09-11T18:19:17.684Z,6.10
2018-09-11T18:21:45.040Z,6.20
2018-09-11T18:24:12.415Z,6.57
2018-09-11T18:26:39.797Z,5.93
2018-09-11T18:29:07.287Z,6.57
2018-09-11T18:31:34.671Z,6.50
2018-09-11T18:34:02.092Z,6.63
2018-09-11T18:36:29.506Z,6.60
2018-09-11T18:38:56.902Z,6.63
2018-09-11T18:41:24.313Z,7.07
2018-09-11T18:43:51.736Z,6.77
2018-09-11T18:46:19.125Z,7.17
2018-09-11T18:48:46.501Z,6.70
2018-09-11T18:51:13.975Z,6.40
2018-09-11T18:53:41.976Z,6.10
2018-09-11T18:56:09.368Z,7.47
2018-09-11T18:58:36.767Z,5.50
2018-09-11T19:01:04.141Z,6.47
2018-09-11T19:03:32.708Z,5.93
2018-09-11T19:06:00.058Z,6.03
2018-09-11T19:08:27.473Z,5.67
2018-09-11T19:10:54.870Z,6.10
2018-09-11T19:13:22.210Z,4.90
2018-09-11T19:15:49.598Z,4.63
2018-09-11T19:18:16.983Z,4.30
2018-09-11T19:20:44.384Z,4.43
2018-09-11T19:23:11.848Z,4.33
2018-09-11T19:25:39.283Z,4.43
2018-09-11T19:28:06.674Z,5.00
2018-09-11T19:30:34.062Z,4.47
2018-09-11T19:33:01.564Z,4.60
2018-09-11T19:35:28.970Z,4.87
2018-09-11T19:37:56.558Z,4.50
2018-09-11T19:40:24.038Z,4.63
2018-09-11T19:42:51.472Z,5.33
2018-09-11T19:45:18.952Z,5.67
2018-09-11T19:47:46.377Z,6.07
2018-09-11T19:50:13.822Z,6.87
2018-09-11T19:52:41.196Z,7.23
2018-09-11T19:55:08.584Z,5.97
2018-09-11T19:57:36.038Z,7.00
2018-09-11T20:00:03.476Z,6.87
2018-09-11T20:02:31.344Z,7.17
2018-09-11T20:04:58.822Z,6.67
2018-09-11T20:07:26.211Z,5.90
2018-09-11T20:09:53.609Z,6.23
2018-09-11T20:12:21.700Z,7.20
2018-09-11T20:14:49.080Z,6.87
2018-09-11T20:17:16.473Z,8.53
2018-09-11T20:19:43.852Z,8.63
2018-09-11T20:22:11.789Z,7.87
2018-09-11T20:24:39.240Z,7.60
2018-09-11T20:27:07.026Z,9.23
2018-09-11T20:29:34.467Z,8.13
2018-09-11T20:32:01.990Z,7.90
2018-09-11T20:34:29.297Z,7.43
2018-09-11T20:36:56.691Z,9.33
2018-09-11T20:39:24.080Z,8.10
2018-09-11T20:41:51.840Z,8.07
2018-09-11T20:44:19.263Z,8.37
2018-09-11T20:46:46.620Z,8.00
2018-09-11T20:49:13.980Z,8.60
2018-09-11T20:51:41.335Z,8.33
2018-09-11T20:54:08.701Z,9.00
2018-09-11T20:56:36.073Z,8.50
2018-09-11T20:59:03.447Z,9.00
2018-09-11T21:01:30.872Z,9.83
2018-09-11T21:03:58.262Z,7.83
2018-09-11T21:06:25.650Z,8.33
2018-09-11T21:08:53.024Z,7.47
2018-09-11T21:11:20.417Z,6.53
2018-09-11T21:13:47.805Z,7.50
2018-09-11T21:16:15.194Z,6.37
2018-09-11T21:18:42.562Z,5.93
2018-09-11T21:21:09.948Z,5.73
2018-09-11T21:23:37.416Z,5.57
2018-09-11T21:26:04.808Z,5.87
2018-09-11T21:28:32.924Z,5.47
2018-09-11T21:31:00.825Z,4.90
2018-09-11T21:33:28.220Z,5.37
2018-09-11T21:35:55.591Z,5.20
2018-09-11T21:38:26.470Z,5.70
2018-09-11T21:40:54.119Z,5.60
2018-09-11T21:43:21.577Z,5.50
2018-09-11T21:45:49.676Z,5.47
2018-09-11T21:48:17.036Z,6.37
2018-09-11T21:50:44.424Z,5.13
2018-09-11T21:53:11.798Z,5.17
2018-09-11T21:55:39.157Z,5.80
2018-09-11T21:58:06.508Z,4.80
2018-09-11T22:00:34.020Z,5.27
2018-09-11T22:03:04.727Z,5.50
2018-09-11T22:05:32.307Z,6.37
2018-09-11T22:07:59.668Z,5.93
2018-09-11T22:10:27.031Z,5.77
2018-09-11T22:12:54.427Z,5.97
2018-09-11T22:15:21.864Z,6.03
2018-09-11T22:17:49.242Z,5.90
2018-09-11T22:20:16.604Z,5.73
2018-09-11T22:22:44.046Z,6.20
2018-09-11T22:25:11.408Z,5.30
2018-09-11T22:27:38.761Z,5.40
2018-09-11T22:30:06.185Z,5.80
2018-09-11T22:32:34.500Z,5.63
2018-09-11T22:35:01.860Z,6.30
2018-09-11T22:37:30.600Z,5.90
2018-09-11T22:39:57.987Z,7.33
2018-09-11T22:42:25.362Z,7.40
2018-09-11T22:44:52.748Z,6.67
2018-09-11T22:47:20.136Z,6.57
2018-09-11T22:49:47.521Z,6.50
2018-09-11T22:52:14.899Z,6.60
2018-09-11T22:54:42.306Z,7.43
2018-09-11T22:57:09.736Z,6.77
2018-09-11T22:59:37.137Z,6.67
2018-09-11T23:02:04.544Z,6.40
2018-09-11T23:04:31.905Z,6.30
2018-09-11T23:06:59.292Z,6.63
2018-09-11T23:09:26.672Z,5.80
2018-09-11T23:11:54.032Z,7.20
2018-09-11T23:14:21.375Z,6.37
2018-09-11T23:16:48.743Z,6.40
2018-09-11T23:19:16.095Z,6.27
2018-09-11T23:21:43.472Z,6.50
2018-09-11T23:24:10.840Z,5.70
2018-09-11T23:26:38.253Z,6.27
2018-09-11T23:29:05.664Z,6.70
2018-09-11T23:31:33.364Z,7.00
2018-09-11T23:34:00.746Z,6.70
2018-09-11T23:36:28.101Z,6.77
2018-09-11T23:38:55.431Z,6.80
2018-09-11T23:41:22.864Z,7.20
2018-09-11T23:43:50.529Z,6.63
2018-09-11T23:46:19.113Z,7.73
2018-09-11T23:48:46.697Z,7.23
2018-09-11T23:51:14.101Z,6.13
2018-09-11T23:53:42.356Z,6.50
2018-09-11T23:56:09.765Z,6.40
2018-09-11T23:58:37.135Z,6.70
